KVLL

Details ICAO KVLL
Name OAKLAND TROY
Region United States
Timezone America/Detroit (UTC-5.0)
Plans Departing 10
Arriving 3
Stats Elevation 729 ft / 222 m (AMSL)
Location 42.542944° -83.177908°
Runways 1
Magnetic Variation 7.498° W
Sunrise 2017-12-16 12:57:46 UTC / 2017-12-16 07:57:46 Local
Sunset 2017-12-16 22:01:54 UTC / 2017-12-16 17:01:54 Local
Advertisement - Login to hide

Runways

ID Width Length Bearing (true) Bearing (mag) Surface Threshold Offset Overrun Length
09 60 ft / 18 m 3,541 ft / 1,079 m 89.70° 97.20° Asphalt 0 ft / 0 m 250 ft / 76 m
27 60 ft / 18 m 3,541 ft / 1,079 m 269.70° 277.20° Asphalt 0 ft / 0 m 0 ft / 0 m

Map

Weather


0- 5 10 15 20 25 30 35+ Temperature / ° C

Clouds and Precipitation
Forecast for 2017-12-17 06:00 UTC. Updated an hour ago

Ground ~20,000 ft ~40,000 ft Winds

METAR

KVLL 170215Z AUTO 05006KT 10SM OVC100 M03/M07 A3017 RMK AO2 T10351069

TAF

Not found

Frequencies

Recorded 119.47 MHz AWOS 3
Approach 126.85 MHz DETROIT APP/DEP
Unicom 123.05 MHz CTAF/UNICOM
Warning: Do not use this data for real-world aviation or navigation. No guarantee of current accuracy is given.